sensor_id;sensor_type;location;lat;lon;timestamp;P1;durP1;ratioP1;P2;durP2;ratioP2
32032;SDS011;31720;52.638;9.216;2023-09-07T00:00:58;3.83;;;2.17;;
32032;SDS011;31720;52.638;9.216;2023-09-07T00:04:00;4.07;;;2.30;;
32032;SDS011;31720;52.638;9.216;2023-09-07T00:07:03;2.80;;;2.15;;
32032;SDS011;31720;52.638;9.216;2023-09-07T00:10:05;3.13;;;2.20;;
32032;SDS011;31720;52.638;9.216;2023-09-07T00:13:08;3.92;;;2.20;;
32032;SDS011;31720;52.638;9.216;2023-09-07T00:16:10;3.65;;;2.13;;
32032;SDS011;31720;52.638;9.216;2023-09-07T00:19:11;4.85;;;2.63;;
32032;SDS011;31720;52.638;9.216;2023-09-07T00:22:13;4.65;;;2.20;;
32032;SDS011;31720;52.638;9.216;2023-09-07T00:25:14;2.53;;;2.03;;
32032;SDS011;31720;52.638;9.216;2023-09-07T00:28:17;4.95;;;2.50;;
32032;SDS011;31720;52.638;9.216;2023-09-07T00:31:18;6.90;;;2.55;;
32032;SDS011;31720;52.638;9.216;2023-09-07T00:34:20;4.70;;;2.33;;
32032;SDS011;31720;52.638;9.216;2023-09-07T00:37:21;4.03;;;2.22;;
32032;SDS011;31720;52.638;9.216;2023-09-07T00:40:23;4.40;;;2.58;;
32032;SDS011;31720;52.638;9.216;2023-09-07T00:43:27;4.20;;;2.38;;
32032;SDS011;31720;52.638;9.216;2023-09-07T00:46:29;6.05;;;2.72;;
32032;SDS011;31720;52.638;9.216;2023-09-07T00:49:30;3.00;;;2.25;;
32032;SDS011;31720;52.638;9.216;2023-09-07T00:52:32;8.77;;;2.75;;
32032;SDS011;31720;52.638;9.216;2023-09-07T00:55:34;4.20;;;2.75;;
32032;SDS011;31720;52.638;9.216;2023-09-07T00:58:38;5.45;;;2.30;;
32032;SDS011;31720;52.638;9.216;2023-09-07T01:01:40;7.03;;;2.63;;
32032;SDS011;31720;52.638;9.216;2023-09-07T01:04:42;3.80;;;2.72;;
32032;SDS011;31720;52.638;9.216;2023-09-07T01:07:46;4.63;;;2.65;;
32032;SDS011;31720;52.638;9.216;2023-09-07T01:10:52;3.08;;;1.95;;
32032;SDS011;31720;52.638;9.216;2023-09-07T01:13:56;6.75;;;2.63;;
32032;SDS011;31720;52.638;9.216;2023-09-07T01:16:58;3.25;;;2.65;;
32032;SDS011;31720;52.638;9.216;2023-09-07T01:20:00;4.95;;;2.67;;
32032;SDS011;31720;52.638;9.216;2023-09-07T01:23:10;3.42;;;2.22;;
32032;SDS011;31720;52.638;9.216;2023-09-07T01:26:13;4.32;;;2.60;;
32032;SDS011;31720;52.638;9.216;2023-09-07T01:29:14;4.07;;;2.58;;
32032;SDS011;31720;52.638;9.216;2023-09-07T01:32:17;4.43;;;2.58;;
32032;SDS011;31720;52.638;9.216;2023-09-07T01:35:18;4.50;;;2.50;;
32032;SDS011;31720;52.638;9.216;2023-09-07T01:38:23;3.60;;;2.58;;
32032;SDS011;31720;52.638;9.216;2023-09-07T01:41:24;4.22;;;2.50;;
32032;SDS011;31720;52.638;9.216;2023-09-07T01:44:26;5.43;;;2.25;;
32032;SDS011;31720;52.638;9.216;2023-09-07T01:47:27;5.70;;;2.67;;
32032;SDS011;31720;52.638;9.216;2023-09-07T01:50:29;7.78;;;3.25;;
32032;SDS011;31720;52.638;9.216;2023-09-07T01:53:31;3.90;;;2.30;;
32032;SDS011;31720;52.638;9.216;2023-09-07T01:56:33;5.57;;;3.03;;
32032;SDS011;31720;52.638;9.216;2023-09-07T01:59:34;4.90;;;2.95;;
32032;SDS011;31720;52.638;9.216;2023-09-07T02:02:35;4.22;;;2.95;;
32032;SDS011;31720;52.638;9.216;2023-09-07T02:05:38;8.18;;;2.97;;
32032;SDS011;31720;52.638;9.216;2023-09-07T02:08:41;5.82;;;3.50;;
32032;SDS011;31720;52.638;9.216;2023-09-07T02:11:43;8.68;;;4.43;;
32032;SDS011;31720;52.638;9.216;2023-09-07T02:14:44;4.22;;;2.28;;
32032;SDS011;31720;52.638;9.216;2023-09-07T02:17:46;4.63;;;2.80;;
32032;SDS011;31720;52.638;9.216;2023-09-07T02:20:47;3.80;;;2.53;;
32032;SDS011;31720;52.638;9.216;2023-09-07T02:23:50;4.95;;;2.72;;
32032;SDS011;31720;52.638;9.216;2023-09-07T02:26:51;8.40;;;3.22;;
32032;SDS011;31720;52.638;9.216;2023-09-07T02:29:53;3.83;;;2.58;;
32032;SDS011;31720;52.638;9.216;2023-09-07T02:32:54;4.43;;;2.17;;
32032;SDS011;31720;52.638;9.216;2023-09-07T02:35:56;4.20;;;2.80;;
32032;SDS011;31720;52.638;9.216;2023-09-07T02:38:59;6.05;;;2.67;;
32032;SDS011;31720;52.638;9.216;2023-09-07T02:42:01;4.80;;;2.58;;
32032;SDS011;31720;52.638;9.216;2023-09-07T02:45:04;4.82;;;2.47;;
32032;SDS011;31720;52.638;9.216;2023-09-07T02:48:06;4.15;;;2.90;;
32032;SDS011;31720;52.638;9.216;2023-09-07T02:51:07;5.30;;;2.92;;
32032;SDS011;31720;52.638;9.216;2023-09-07T02:54:10;4.78;;;2.70;;
32032;SDS011;31720;52.638;9.216;2023-09-07T02:57:11;6.10;;;3.30;;
32032;SDS011;31720;52.638;9.216;2023-09-07T03:00:13;3.75;;;2.67;;
32032;SDS011;31720;52.638;9.216;2023-09-07T03:03:17;4.90;;;3.03;;
32032;SDS011;31720;52.638;9.216;2023-09-07T03:06:18;3.88;;;2.65;;
32032;SDS011;31720;52.638;9.216;2023-09-07T03:09:21;3.92;;;2.80;;
32032;SDS011;31720;52.638;9.216;2023-09-07T03:12:22;4.53;;;2.35;;
32032;SDS011;31720;52.638;9.216;2023-09-07T03:15:24;10.18;;;2.72;;
32032;SDS011;31720;52.638;9.216;2023-09-07T03:18:26;3.33;;;2.42;;
32032;SDS011;31720;52.638;9.216;2023-09-07T03:21:27;6.75;;;2.85;;
32032;SDS011;31720;52.638;9.216;2023-09-07T03:24:31;6.55;;;3.50;;
32032;SDS011;31720;52.638;9.216;2023-09-07T03:27:32;5.38;;;3.00;;
32032;SDS011;31720;52.638;9.216;2023-09-07T03:30:34;5.10;;;3.08;;
32032;SDS011;31720;52.638;9.216;2023-09-07T03:33:35;5.50;;;2.88;;
32032;SDS011;31720;52.638;9.216;2023-09-07T03:36:36;6.00;;;3.10;;
32032;SDS011;31720;52.638;9.216;2023-09-07T03:39:39;5.32;;;3.50;;
32032;SDS011;31720;52.638;9.216;2023-09-07T03:42:41;7.53;;;3.47;;
32032;SDS011;31720;52.638;9.216;2023-09-07T03:45:43;6.65;;;2.70;;
32032;SDS011;31720;52.638;9.216;2023-09-07T03:48:44;4.90;;;2.83;;
32032;SDS011;31720;52.638;9.216;2023-09-07T03:51:46;5.35;;;3.55;;
32032;SDS011;31720;52.638;9.216;2023-09-07T03:54:49;6.63;;;3.42;;
32032;SDS011;31720;52.638;9.216;2023-09-07T03:57:50;4.88;;;2.92;;
32032;SDS011;31720;52.638;9.216;2023-09-07T04:00:51;6.55;;;3.13;;
32032;SDS011;31720;52.638;9.216;2023-09-07T04:03:53;5.95;;;3.70;;
32032;SDS011;31720;52.638;9.216;2023-09-07T04:06:54;6.10;;;3.95;;
32032;SDS011;31720;52.638;9.216;2023-09-07T04:09:57;5.07;;;3.38;;
32032;SDS011;31720;52.638;9.216;2023-09-07T04:12:58;3.65;;;2.97;;
32032;SDS011;31720;52.638;9.216;2023-09-07T04:15:59;5.07;;;3.38;;
32032;SDS011;31720;52.638;9.216;2023-09-07T04:19:01;5.82;;;3.35;;
32032;SDS011;31720;52.638;9.216;2023-09-07T04:22:03;5.40;;;3.70;;
32032;SDS011;31720;52.638;9.216;2023-09-07T04:25:06;5.38;;;3.40;;
32032;SDS011;31720;52.638;9.216;2023-09-07T04:28:08;5.28;;;2.97;;
32032;SDS011;31720;52.638;9.216;2023-09-07T04:31:09;5.00;;;3.28;;
32032;SDS011;31720;52.638;9.216;2023-09-07T04:34:11;5.25;;;3.08;;
32032;SDS011;31720;52.638;9.216;2023-09-07T04:37:12;7.25;;;4.00;;
32032;SDS011;31720;52.638;9.216;2023-09-07T04:40:15;7.68;;;4.07;;
32032;SDS011;31720;52.638;9.216;2023-09-07T04:43:16;5.75;;;3.50;;
32032;SDS011;31720;52.638;9.216;2023-09-07T04:46:21;5.00;;;3.08;;
32032;SDS011;31720;52.638;9.216;2023-09-07T04:49:23;6.30;;;3.60;;
32032;SDS011;31720;52.638;9.216;2023-09-07T04:52:26;7.18;;;3.60;;
32032;SDS011;31720;52.638;9.216;2023-09-07T04:55:29;6.28;;;3.08;;
32032;SDS011;31720;52.638;9.216;2023-09-07T04:58:30;9.02;;;3.88;;
32032;SDS011;31720;52.638;9.216;2023-09-07T05:01:32;5.85;;;3.70;;
32032;SDS011;31720;52.638;9.216;2023-09-07T05:04:33;6.93;;;4.25;;
32032;SDS011;31720;52.638;9.216;2023-09-07T05:07:35;6.97;;;4.32;;
32032;SDS011;31720;52.638;9.216;2023-09-07T05:10:37;5.85;;;3.78;;
32032;SDS011;31720;52.638;9.216;2023-09-07T05:13:39;8.75;;;3.85;;
32032;SDS011;31720;52.638;9.216;2023-09-07T05:16:42;6.28;;;3.40;;
32032;SDS011;31720;52.638;9.216;2023-09-07T05:19:43;8.23;;;3.95;;
32032;SDS011;31720;52.638;9.216;2023-09-07T05:22:45;9.98;;;3.92;;
32032;SDS011;31720;52.638;9.216;2023-09-07T05:25:48;8.02;;;3.97;;
32032;SDS011;31720;52.638;9.216;2023-09-07T05:28:52;5.93;;;3.53;;
32032;SDS011;31720;52.638;9.216;2023-09-07T05:31:53;6.20;;;3.92;;
32032;SDS011;31720;52.638;9.216;2023-09-07T05:34:55;6.40;;;3.47;;
32032;SDS011;31720;52.638;9.216;2023-09-07T05:37:56;6.68;;;3.30;;
32032;SDS011;31720;52.638;9.216;2023-09-07T05:40:59;5.53;;;3.88;;
32032;SDS011;31720;52.638;9.216;2023-09-07T05:44:00;8.13;;;4.40;;
32032;SDS011;31720;52.638;9.216;2023-09-07T05:47:02;7.00;;;3.70;;
32032;SDS011;31720;52.638;9.216;2023-09-07T05:50:04;5.65;;;3.33;;
32032;SDS011;31720;52.638;9.216;2023-09-07T05:53:06;6.20;;;4.18;;
32032;SDS011;31720;52.638;9.216;2023-09-07T05:56:09;5.00;;;3.40;;
32032;SDS011;31720;52.638;9.216;2023-09-07T05:59:10;7.90;;;4.30;;
32032;SDS011;31720;52.638;9.216;2023-09-07T06:02:11;9.38;;;3.88;;
32032;SDS011;31720;52.638;9.216;2023-09-07T06:05:13;9.13;;;4.47;;
32032;SDS011;31720;52.638;9.216;2023-09-07T06:08:15;8.07;;;4.15;;
32032;SDS011;31720;52.638;9.216;2023-09-07T06:11:17;6.70;;;4.03;;
32032;SDS011;31720;52.638;9.216;2023-09-07T06:14:19;9.18;;;4.82;;
32032;SDS011;31720;52.638;9.216;2023-09-07T06:17:20;7.25;;;3.97;;
32032;SDS011;31720;52.638;9.216;2023-09-07T06:20:21;7.95;;;4.35;;
32032;SDS011;31720;52.638;9.216;2023-09-07T06:23:23;8.25;;;4.30;;
32032;SDS011;31720;52.638;9.216;2023-09-07T06:26:26;5.85;;;3.78;;
32032;SDS011;31720;52.638;9.216;2023-09-07T06:29:27;7.60;;;4.15;;
32032;SDS011;31720;52.638;9.216;2023-09-07T06:32:28;5.70;;;4.00;;
32032;SDS011;31720;52.638;9.216;2023-09-07T06:35:30;14.63;;;4.53;;
32032;SDS011;31720;52.638;9.216;2023-09-07T06:38:31;6.60;;;4.43;;
32032;SDS011;31720;52.638;9.216;2023-09-07T06:41:34;7.32;;;4.10;;
32032;SDS011;31720;52.638;9.216;2023-09-07T06:44:35;7.68;;;4.38;;
32032;SDS011;31720;52.638;9.216;2023-09-07T06:47:37;6.53;;;4.53;;
32032;SDS011;31720;52.638;9.216;2023-09-07T06:50:38;6.97;;;4.22;;
32032;SDS011;31720;52.638;9.216;2023-09-07T06:53:40;7.93;;;3.85;;
32032;SDS011;31720;52.638;9.216;2023-09-07T06:56:43;6.68;;;3.97;;
32032;SDS011;31720;52.638;9.216;2023-09-07T06:59:44;7.40;;;4.22;;
32032;SDS011;31720;52.638;9.216;2023-09-07T07:02:46;9.00;;;4.35;;
32032;SDS011;31720;52.638;9.216;2023-09-07T07:05:47;7.82;;;4.32;;
32032;SDS011;31720;52.638;9.216;2023-09-07T07:08:48;8.93;;;4.75;;
32032;SDS011;31720;52.638;9.216;2023-09-07T07:11:51;7.75;;;4.43;;
32032;SDS011;31720;52.638;9.216;2023-09-07T07:14:52;5.07;;;3.88;;
32032;SDS011;31720;52.638;9.216;2023-09-07T07:17:55;8.55;;;4.30;;
32032;SDS011;31720;52.638;9.216;2023-09-07T07:20:56;6.50;;;4.03;;
32032;SDS011;31720;52.638;9.216;2023-09-07T07:23:57;6.95;;;4.32;;
32032;SDS011;31720;52.638;9.216;2023-09-07T07:27:00;9.10;;;4.57;;
32032;SDS011;31720;52.638;9.216;2023-09-07T07:30:03;7.50;;;4.53;;
32032;SDS011;31720;52.638;9.216;2023-09-07T07:33:05;7.47;;;4.60;;
32032;SDS011;31720;52.638;9.216;2023-09-07T07:36:07;7.20;;;4.38;;
32032;SDS011;31720;52.638;9.216;2023-09-07T07:39:09;9.15;;;3.50;;
32032;SDS011;31720;52.638;9.216;2023-09-07T07:42:12;7.88;;;3.97;;
32032;SDS011;31720;52.638;9.216;2023-09-07T07:45:13;7.13;;;4.07;;
32032;SDS011;31720;52.638;9.216;2023-09-07T07:48:19;8.90;;;4.20;;
32032;SDS011;31720;52.638;9.216;2023-09-07T07:51:21;7.15;;;3.20;;
32032;SDS011;31720;52.638;9.216;2023-09-07T07:54:22;6.95;;;4.10;;
32032;SDS011;31720;52.638;9.216;2023-09-07T07:57:26;10.25;;;3.85;;
32032;SDS011;31720;52.638;9.216;2023-09-07T08:00:27;6.10;;;3.80;;
32032;SDS011;31720;52.638;9.216;2023-09-07T08:03:28;6.32;;;3.80;;
32032;SDS011;31720;52.638;9.216;2023-09-07T08:06:30;6.85;;;3.72;;
32032;SDS011;31720;52.638;9.216;2023-09-07T08:09:31;6.20;;;3.78;;
32032;SDS011;31720;52.638;9.216;2023-09-07T08:12:34;5.78;;;3.53;;
32032;SDS011;31720;52.638;9.216;2023-09-07T08:15:35;6.35;;;3.65;;
32032;SDS011;31720;52.638;9.216;2023-09-07T08:18:37;6.20;;;3.83;;
32032;SDS011;31720;52.638;9.216;2023-09-07T08:21:40;5.75;;;3.35;;
32032;SDS011;31720;52.638;9.216;2023-09-07T08:24:42;6.45;;;3.47;;
32032;SDS011;31720;52.638;9.216;2023-09-07T08:27:45;6.70;;;3.17;;
32032;SDS011;31720;52.638;9.216;2023-09-07T08:30:48;5.20;;;3.20;;
32032;SDS011;31720;52.638;9.216;2023-09-07T08:33:53;5.72;;;4.03;;
32032;SDS011;31720;52.638;9.216;2023-09-07T08:36:55;5.35;;;3.20;;
32032;SDS011;31720;52.638;9.216;2023-09-07T08:39:59;6.18;;;3.58;;
32032;SDS011;31720;52.638;9.216;2023-09-07T08:43:02;7.35;;;3.10;;
32032;SDS011;31720;52.638;9.216;2023-09-07T08:46:08;5.50;;;3.42;;
32032;SDS011;31720;52.638;9.216;2023-09-07T08:49:14;8.18;;;3.50;;
32032;SDS011;31720;52.638;9.216;2023-09-07T08:52:19;5.93;;;3.55;;
32032;SDS011;31720;52.638;9.216;2023-09-07T08:55:21;5.85;;;2.95;;
32032;SDS011;31720;52.638;9.216;2023-09-07T08:58:25;4.28;;;3.28;;
32032;SDS011;31720;52.638;9.216;2023-09-07T09:01:27;5.75;;;3.30;;
32032;SDS011;31720;52.638;9.216;2023-09-07T09:04:28;4.60;;;3.17;;
32032;SDS011;31720;52.638;9.216;2023-09-07T09:07:31;5.80;;;3.10;;
32032;SDS011;31720;52.638;9.216;2023-09-07T09:10:32;4.05;;;2.88;;
32032;SDS011;31720;52.638;9.216;2023-09-07T09:13:35;5.75;;;2.92;;
32032;SDS011;31720;52.638;9.216;2023-09-07T09:16:36;4.70;;;2.55;;
32032;SDS011;31720;52.638;9.216;2023-09-07T09:19:38;4.68;;;2.92;;
32032;SDS011;31720;52.638;9.216;2023-09-07T09:22:39;4.88;;;2.78;;
32032;SDS011;31720;52.638;9.216;2023-09-07T09:25:41;4.95;;;2.92;;
32032;SDS011;31720;52.638;9.216;2023-09-07T09:28:44;5.18;;;2.78;;
32032;SDS011;31720;52.638;9.216;2023-09-07T09:31:46;6.15;;;2.80;;
32032;SDS011;31720;52.638;9.216;2023-09-07T09:34:47;4.85;;;2.70;;
32032;SDS011;31720;52.638;9.216;2023-09-07T09:37:49;5.55;;;2.97;;
32032;SDS011;31720;52.638;9.216;2023-09-07T09:40:51;5.10;;;3.35;;
32032;SDS011;31720;52.638;9.216;2023-09-07T09:43:54;5.15;;;3.30;;
32032;SDS011;31720;52.638;9.216;2023-09-07T09:46:57;4.38;;;3.13;;
32032;SDS011;31720;52.638;9.216;2023-09-07T09:50:00;5.38;;;2.58;;
32032;SDS011;31720;52.638;9.216;2023-09-07T09:53:05;3.67;;;2.92;;
32032;SDS011;31720;52.638;9.216;2023-09-07T09:56:07;4.35;;;2.70;;
32032;SDS011;31720;52.638;9.216;2023-09-07T09:59:10;5.03;;;2.95;;
32032;SDS011;31720;52.638;9.216;2023-09-07T10:02:12;4.70;;;2.92;;
32032;SDS011;31720;52.638;9.216;2023-09-07T10:05:14;3.45;;;2.22;;
32032;SDS011;31720;52.638;9.216;2023-09-07T10:08:17;5.78;;;2.58;;
32032;SDS011;31720;52.638;9.216;2023-09-07T10:11:32;2.38;;;2.17;;
32032;SDS011;31720;52.638;9.216;2023-09-07T10:14:39;4.78;;;2.53;;
32032;SDS011;31720;52.638;9.216;2023-09-07T10:17:41;6.95;;;2.70;;
32032;SDS011;31720;52.638;9.216;2023-09-07T10:20:46;4.85;;;2.50;;
32032;SDS011;31720;52.638;9.216;2023-09-07T10:23:49;3.20;;;2.40;;
32032;SDS011;31720;52.638;9.216;2023-09-07T10:26:55;3.92;;;2.67;;
32032;SDS011;31720;52.638;9.216;2023-09-07T10:29:59;4.57;;;2.40;;
32032;SDS011;31720;52.638;9.216;2023-09-07T10:33:00;3.83;;;2.30;;
32032;SDS011;31720;52.638;9.216;2023-09-07T10:36:02;3.28;;;2.25;;
32032;SDS011;31720;52.638;9.216;2023-09-07T10:39:04;2.85;;;2.25;;
32032;SDS011;31720;52.638;9.216;2023-09-07T10:42:07;4.78;;;2.85;;
32032;SDS011;31720;52.638;9.216;2023-09-07T10:45:11;3.78;;;2.33;;
32032;SDS011;31720;52.638;9.216;2023-09-07T10:48:16;3.13;;;2.00;;
32032;SDS011;31720;52.638;9.216;2023-09-07T10:51:17;4.03;;;2.20;;
32032;SDS011;31720;52.638;9.216;2023-09-07T10:54:21;6.30;;;2.63;;
32032;SDS011;31720;52.638;9.216;2023-09-07T10:57:24;5.90;;;2.30;;
32032;SDS011;31720;52.638;9.216;2023-09-07T11:00:28;4.22;;;2.38;;
32032;SDS011;31720;52.638;9.216;2023-09-07T11:03:29;3.85;;;2.33;;
32032;SDS011;31720;52.638;9.216;2023-09-07T11:06:31;4.07;;;2.47;;
32032;SDS011;31720;52.638;9.216;2023-09-07T11:09:32;3.95;;;2.47;;
32032;SDS011;31720;52.638;9.216;2023-09-07T11:12:37;3.97;;;2.60;;
32032;SDS011;31720;52.638;9.216;2023-09-07T11:15:41;8.32;;;2.40;;
32032;SDS011;31720;52.638;9.216;2023-09-07T11:18:44;3.58;;;2.30;;
32032;SDS011;31720;52.638;9.216;2023-09-07T11:21:46;3.65;;;2.85;;
32032;SDS011;31720;52.638;9.216;2023-09-07T11:24:47;3.30;;;2.17;;
32032;SDS011;31720;52.638;9.216;2023-09-07T11:27:49;4.43;;;2.55;;
32032;SDS011;31720;52.638;9.216;2023-09-07T11:30:56;3.22;;;2.30;;
32032;SDS011;31720;52.638;9.216;2023-09-07T11:33:58;5.40;;;2.50;;
32032;SDS011;31720;52.638;9.216;2023-09-07T11:37:02;5.55;;;2.70;;
32032;SDS011;31720;52.638;9.216;2023-09-07T11:40:04;4.10;;;2.30;;
32032;SDS011;31720;52.638;9.216;2023-09-07T11:43:11;3.75;;;2.40;;
32032;SDS011;31720;52.638;9.216;2023-09-07T11:46:14;5.82;;;2.90;;
32032;SDS011;31720;52.638;9.216;2023-09-07T11:49:15;4.93;;;2.42;;
32032;SDS011;31720;52.638;9.216;2023-09-07T11:52:20;4.00;;;2.55;;
32032;SDS011;31720;52.638;9.216;2023-09-07T11:55:21;3.65;;;2.10;;
32032;SDS011;31720;52.638;9.216;2023-09-07T11:58:22;3.15;;;2.35;;
32032;SDS011;31720;52.638;9.216;2023-09-07T12:01:26;5.45;;;2.40;;
32032;SDS011;31720;52.638;9.216;2023-09-07T12:04:27;2.80;;;2.20;;
32032;SDS011;31720;52.638;9.216;2023-09-07T12:07:29;3.83;;;2.33;;
32032;SDS011;31720;52.638;9.216;2023-09-07T12:10:30;5.53;;;2.50;;
32032;SDS011;31720;52.638;9.216;2023-09-07T12:13:32;4.60;;;2.40;;
32032;SDS011;31720;52.638;9.216;2023-09-07T12:16:35;2.95;;;2.35;;
32032;SDS011;31720;52.638;9.216;2023-09-07T12:19:36;4.30;;;1.98;;
32032;SDS011;31720;52.638;9.216;2023-09-07T12:22:37;3.35;;;2.45;;
32032;SDS011;31720;52.638;9.216;2023-09-07T12:25:39;3.38;;;2.17;;
32032;SDS011;31720;52.638;9.216;2023-09-07T12:28:40;6.63;;;2.75;;
32032;SDS011;31720;52.638;9.216;2023-09-07T12:31:43;5.32;;;2.42;;
32032;SDS011;31720;52.638;9.216;2023-09-07T12:34:45;4.10;;;2.20;;
32032;SDS011;31720;52.638;9.216;2023-09-07T12:37:46;4.13;;;2.63;;
32032;SDS011;31720;52.638;9.216;2023-09-07T12:40:48;5.20;;;2.10;;
32032;SDS011;31720;52.638;9.216;2023-09-07T12:43:49;2.90;;;1.92;;
32032;SDS011;31720;52.638;9.216;2023-09-07T12:46:53;3.63;;;2.53;;
32032;SDS011;31720;52.638;9.216;2023-09-07T12:49:55;3.38;;;2.15;;
32032;SDS011;31720;52.638;9.216;2023-09-07T12:52:56;3.38;;;2.30;;
32032;SDS011;31720;52.638;9.216;2023-09-07T12:55:58;3.63;;;2.20;;
32032;SDS011;31720;52.638;9.216;2023-09-07T12:59:01;2.85;;;2.17;;
32032;SDS011;31720;52.638;9.216;2023-09-07T13:02:05;5.03;;;2.40;;
32032;SDS011;31720;52.638;9.216;2023-09-07T13:05:06;4.78;;;2.33;;
32032;SDS011;31720;52.638;9.216;2023-09-07T13:08:08;2.88;;;2.30;;
32032;SDS011;31720;52.638;9.216;2023-09-07T13:11:09;4.72;;;2.00;;
32032;SDS011;31720;52.638;9.216;2023-09-07T13:14:11;6.55;;;2.15;;
32032;SDS011;31720;52.638;9.216;2023-09-07T13:17:14;4.00;;;2.22;;
32032;SDS011;31720;52.638;9.216;2023-09-07T13:20:15;9.07;;;2.15;;
32032;SDS011;31720;52.638;9.216;2023-09-07T13:23:17;3.88;;;2.30;;
32032;SDS011;31720;52.638;9.216;2023-09-07T13:26:19;3.05;;;2.28;;
32032;SDS011;31720;52.638;9.216;2023-09-07T13:29:20;2.70;;;2.00;;
32032;SDS011;31720;52.638;9.216;2023-09-07T13:32:23;3.72;;;2.20;;
32032;SDS011;31720;52.638;9.216;2023-09-07T13:35:25;3.35;;;2.20;;
32032;SDS011;31720;52.638;9.216;2023-09-07T13:38:26;8.68;;;2.47;;
32032;SDS011;31720;52.638;9.216;2023-09-07T13:41:28;3.55;;;2.28;;
32032;SDS011;31720;52.638;9.216;2023-09-07T13:44:29;2.83;;;2.22;;
32032;SDS011;31720;52.638;9.216;2023-09-07T13:47:32;2.88;;;1.95;;
32032;SDS011;31720;52.638;9.216;2023-09-07T13:50:33;2.42;;;1.80;;
32032;SDS011;31720;52.638;9.216;2023-09-07T13:53:35;2.28;;;2.05;;
32032;SDS011;31720;52.638;9.216;2023-09-07T13:56:36;3.33;;;2.22;;
32032;SDS011;31720;52.638;9.216;2023-09-07T13:59:38;4.25;;;2.00;;
32032;SDS011;31720;52.638;9.216;2023-09-07T14:02:41;5.28;;;2.33;;
32032;SDS011;31720;52.638;9.216;2023-09-07T14:05:42;3.88;;;2.13;;
32032;SDS011;31720;52.638;9.216;2023-09-07T14:08:44;3.55;;;1.95;;
32032;SDS011;31720;52.638;9.216;2023-09-07T14:11:46;4.22;;;1.80;;
32032;SDS011;31720;52.638;9.216;2023-09-07T14:14:47;3.03;;;2.20;;
32032;SDS011;31720;52.638;9.216;2023-09-07T14:17:51;3.53;;;2.30;;
32032;SDS011;31720;52.638;9.216;2023-09-07T14:20:53;2.05;;;1.63;;
32032;SDS011;31720;52.638;9.216;2023-09-07T14:23:57;2.95;;;2.03;;
32032;SDS011;31720;52.638;9.216;2023-09-07T14:27:00;3.88;;;2.00;;
32032;SDS011;31720;52.638;9.216;2023-09-07T14:30:01;2.60;;;1.90;;
32032;SDS011;31720;52.638;9.216;2023-09-07T14:33:04;2.40;;;1.85;;
32032;SDS011;31720;52.638;9.216;2023-09-07T14:36:06;3.90;;;2.15;;
32032;SDS011;31720;52.638;9.216;2023-09-07T14:39:08;2.67;;;1.98;;
32032;SDS011;31720;52.638;9.216;2023-09-07T14:42:10;3.78;;;2.55;;
32032;SDS011;31720;52.638;9.216;2023-09-07T14:45:14;3.28;;;2.10;;
32032;SDS011;31720;52.638;9.216;2023-09-07T14:48:17;4.18;;;2.28;;
32032;SDS011;31720;52.638;9.216;2023-09-07T14:51:18;3.65;;;2.13;;
32032;SDS011;31720;52.638;9.216;2023-09-07T14:54:20;3.03;;;2.03;;
32032;SDS011;31720;52.638;9.216;2023-09-07T14:57:21;3.67;;;2.13;;
32032;SDS011;31720;52.638;9.216;2023-09-07T15:00:22;3.22;;;2.10;;
32032;SDS011;31720;52.638;9.216;2023-09-07T15:03:27;5.00;;;2.40;;
32032;SDS011;31720;52.638;9.216;2023-09-07T15:06:29;2.85;;;2.10;;
32032;SDS011;31720;52.638;9.216;2023-09-07T15:09:33;4.75;;;1.98;;
32032;SDS011;31720;52.638;9.216;2023-09-07T15:12:34;2.95;;;2.00;;
32032;SDS011;31720;52.638;9.216;2023-09-07T15:15:36;3.45;;;2.10;;
32032;SDS011;31720;52.638;9.216;2023-09-07T15:18:41;3.08;;;2.05;;
32032;SDS011;31720;52.638;9.216;2023-09-07T15:21:42;3.60;;;2.20;;
32032;SDS011;31720;52.638;9.216;2023-09-07T15:24:43;3.00;;;1.95;;
32032;SDS011;31720;52.638;9.216;2023-09-07T15:27:45;2.60;;;1.85;;
32032;SDS011;31720;52.638;9.216;2023-09-07T15:30:46;2.72;;;2.00;;
32032;SDS011;31720;52.638;9.216;2023-09-07T15:33:49;2.90;;;2.05;;
32032;SDS011;31720;52.638;9.216;2023-09-07T15:36:51;2.80;;;1.90;;
32032;SDS011;31720;52.638;9.216;2023-09-07T15:39:52;2.95;;;2.00;;
32032;SDS011;31720;52.638;9.216;2023-09-07T15:42:54;3.22;;;2.15;;
32032;SDS011;31720;52.638;9.216;2023-09-07T15:45:55;5.45;;;2.13;;
32032;SDS011;31720;52.638;9.216;2023-09-07T15:48:58;5.88;;;2.80;;
32032;SDS011;31720;52.638;9.216;2023-09-07T15:51:59;3.40;;;2.20;;
32032;SDS011;31720;52.638;9.216;2023-09-07T15:55:01;3.08;;;1.90;;
32032;SDS011;31720;52.638;9.216;2023-09-07T15:58:03;2.78;;;2.20;;
32032;SDS011;31720;52.638;9.216;2023-09-07T16:01:04;4.53;;;2.00;;
32032;SDS011;31720;52.638;9.216;2023-09-07T16:04:07;3.85;;;2.10;;
32032;SDS011;31720;52.638;9.216;2023-09-07T16:07:08;2.63;;;1.95;;
32032;SDS011;31720;52.638;9.216;2023-09-07T16:10:10;3.20;;;2.00;;
32032;SDS011;31720;52.638;9.216;2023-09-07T16:13:13;4.35;;;2.42;;
32032;SDS011;31720;52.638;9.216;2023-09-07T16:16:14;4.60;;;2.75;;
32032;SDS011;31720;52.638;9.216;2023-09-07T16:19:17;3.42;;;1.90;;
32032;SDS011;31720;52.638;9.216;2023-09-07T16:22:19;4.38;;;2.05;;
32032;SDS011;31720;52.638;9.216;2023-09-07T16:25:20;3.03;;;2.00;;
32032;SDS011;31720;52.638;9.216;2023-09-07T16:28:22;5.50;;;2.30;;
32032;SDS011;31720;52.638;9.216;2023-09-07T16:31:23;5.90;;;2.45;;
32032;SDS011;31720;52.638;9.216;2023-09-07T16:34:26;3.42;;;2.33;;
32032;SDS011;31720;52.638;9.216;2023-09-07T16:37:28;3.20;;;2.13;;
32032;SDS011;31720;52.638;9.216;2023-09-07T16:40:30;4.00;;;2.45;;
32032;SDS011;31720;52.638;9.216;2023-09-07T16:43:31;5.05;;;2.58;;
32032;SDS011;31720;52.638;9.216;2023-09-07T16:46:33;5.72;;;2.55;;
32032;SDS011;31720;52.638;9.216;2023-09-07T16:49:35;4.57;;;2.38;;
32032;SDS011;31720;52.638;9.216;2023-09-07T16:52:37;3.90;;;2.30;;
32032;SDS011;31720;52.638;9.216;2023-09-07T16:55:38;4.30;;;2.25;;
32032;SDS011;31720;52.638;9.216;2023-09-07T16:58:41;6.35;;;2.45;;
32032;SDS011;31720;52.638;9.216;2023-09-07T17:01:42;4.15;;;2.67;;
32032;SDS011;31720;52.638;9.216;2023-09-07T17:04:45;5.78;;;2.50;;
32032;SDS011;31720;52.638;9.216;2023-09-07T17:07:47;4.15;;;2.60;;
32032;SDS011;31720;52.638;9.216;2023-09-07T17:10:48;3.55;;;2.17;;
32032;SDS011;31720;52.638;9.216;2023-09-07T17:13:49;3.88;;;2.40;;
32032;SDS011;31720;52.638;9.216;2023-09-07T17:16:52;4.25;;;2.50;;
32032;SDS011;31720;52.638;9.216;2023-09-07T17:19:57;3.72;;;2.60;;
32032;SDS011;31720;52.638;9.216;2023-09-07T17:22:59;4.28;;;2.35;;
32032;SDS011;31720;52.638;9.216;2023-09-07T17:26:00;7.10;;;2.95;;
32032;SDS011;31720;52.638;9.216;2023-09-07T17:29:02;3.97;;;2.80;;
32032;SDS011;31720;52.638;9.216;2023-09-07T17:32:04;3.90;;;2.30;;
32032;SDS011;31720;52.638;9.216;2023-09-07T17:35:07;2.67;;;2.15;;
32032;SDS011;31720;52.638;9.216;2023-09-07T17:38:09;4.80;;;2.70;;
32032;SDS011;31720;52.638;9.216;2023-09-07T17:41:10;3.65;;;2.08;;
32032;SDS011;31720;52.638;9.216;2023-09-07T17:44:12;3.72;;;2.67;;
32032;SDS011;31720;52.638;9.216;2023-09-07T17:47:13;3.30;;;2.28;;
32032;SDS011;31720;52.638;9.216;2023-09-07T17:50:16;4.00;;;2.53;;
32032;SDS011;31720;52.638;9.216;2023-09-07T17:53:17;4.30;;;2.50;;
32032;SDS011;31720;52.638;9.216;2023-09-07T17:56:19;3.72;;;2.38;;
32032;SDS011;31720;52.638;9.216;2023-09-07T17:59:20;4.28;;;2.60;;
32032;SDS011;31720;52.638;9.216;2023-09-07T18:02:22;4.93;;;2.75;;
32032;SDS011;31720;52.638;9.216;2023-09-07T18:05:28;5.00;;;2.90;;
32032;SDS011;31720;52.638;9.216;2023-09-07T18:08:29;3.67;;;2.40;;
32032;SDS011;31720;52.638;9.216;2023-09-07T18:11:30;3.63;;;2.20;;
32032;SDS011;31720;52.638;9.216;2023-09-07T18:14:32;6.78;;;2.35;;
32032;SDS011;31720;52.638;9.216;2023-09-07T18:17:33;4.43;;;2.35;;